Keesler Air Force Base Biloxi US
ICAO: KBIX
IATA: BIX
Category: Medium
Scheduled Services: No

Elevation: 33 ft
TransAlt. 18000 ft.

Airport Communications:
GULFPORT APP/DEP:124.6
ATIS:25.6
CLNC DEL:121.8
GND:121.8
AEROMEDICAL EVAC:23.66
PMSV METRO:34.46
403 WG AFRC COMD:25.28
PTD:37.22
TWR:120.75

KBIX Zoom In..

Runways:

(A) RW 03 length 7630 ft width 150 ft
---- / hdg 34

(B) RW 21 length 7630 ft width 150 ft
ILS 109.70 / hdg 214

Location; KBIX
Day. 16 / Time. 18.22 Zulu
* Altimeter: 30.04
* Temperature: 28° c. 82.4°f.
* Wind from: 130° Speed 12 kn with Gusts up to 22 kn.
Dewpoint: 24° c.
Visibility: 5 Statute Miles.
Clouds: Scattered 1600 ft.
Clouds: Broken 3100 ft.
Clouds: Broken 17000 ft.

KBIX 161822Z AUTO 13012G22KT 5SM +TSRA SCT016 BKN031 BKN170 28/24 A3004 RMK AO2 WSHFT 21 RAB16 TSB09 SLP175


Wind From 130°
Speed 12 kn.

 
 
jpsmedia.com for Web Design worldairports.se 2018   terms of use